Time;durP1;ratioP1;P1;durP2;ratioP2;P2;SDS_P1;SDS_P2;PMS_P1;PMS_P2;Temp;Humidity;BMP_temperature;BMP_pressure;BME280_temperature;BME280_humidity;BME280_pressure;Samples;Min_cycle;Max_cycle;Signal;HPM_P1;HPM_P2
2023/06/15 00:00:34;;;;;;;1999.90;999.90;;;12.00;65.40;;;;;;5033267;28;20064;-90
2023/06/15 00:03:00;;;;;;;1999.90;999.90;;;11.90;65.90;;;;;;5043927;28;20028;-90
2023/06/15 00:05:25;;;;;;;1999.90;999.90;;;11.80;67.10;;;;;;5037777;28;20029;-90
2023/06/15 00:07:51;;;;;;;1999.90;999.90;;;11.70;67.00;;;;;;5069383;28;20030;-91
2023/06/15 00:10:17;;;;;;;1999.90;999.90;;;11.70;66.60;;;;;;5037890;28;20029;-90
2023/06/15 00:12:43;;;;;;;1999.90;999.90;;;11.70;67.70;;;;;;5035110;28;20041;-90
2023/06/15 00:15:10;;;;;;;1999.90;999.90;;;11.70;67.20;;;;;;5036235;28;20040;-90
2023/06/15 00:17:37;;;;;;;1999.90;999.90;;;11.90;66.50;;;;;;5036305;28;21206;-90
2023/06/15 00:20:06;;;;;;;1999.90;999.90;;;12.00;66.00;;;;;;5030702;28;20029;-89
2023/06/15 00:22:34;;;;;;;1999.90;999.90;;;11.90;66.50;;;;;;5044303;28;20492;-89
2023/06/15 00:25:00;;;;;;;1999.90;999.90;;;11.80;67.00;;;;;;5038337;28;20029;-89
2023/06/15 00:27:25;;;;;;;1999.90;999.90;;;11.80;67.00;;;;;;5040815;28;20574;-90
2023/06/15 00:29:51;;;;;;;1999.90;999.90;;;11.70;66.60;;;;;;5036718;28;20051;-88
2023/06/15 00:32:17;;;;;;;1999.90;999.90;;;11.70;67.00;;;;;;5036304;28;20396;-88
2023/06/15 00:34:42;;;;;;;1999.90;999.90;;;11.70;66.70;;;;;;5035387;28;20511;-89
2023/06/15 00:37:08;;;;;;;1999.90;999.90;;;11.70;66.90;;;;;;5036724;28;20044;-87
2023/06/15 00:39:34;;;;;;;1999.90;999.90;;;11.70;67.10;;;;;;5034206;28;20033;-88
2023/06/15 00:41:59;;;;;;;1999.90;999.90;;;11.80;66.70;;;;;;5042290;28;20128;-88
2023/06/15 00:44:25;;;;;;;286.95;270.67;;;11.80;66.90;;;;;;5037283;28;20021;-87
2023/06/15 00:46:51;;;;;;;276.00;259.60;;;11.80;67.80;;;;;;5035177;28;20029;-90
2023/06/15 00:49:17;;;;;;;325.73;309.00;;;12.00;67.60;;;;;;5036495;28;20553;-88
2023/06/15 00:51:43;;;;;;;316.65;300.70;;;12.00;67.40;;;;;;5034912;28;20116;-88
2023/06/15 00:54:12;;;;;;;449.80;427.98;;;12.00;68.10;;;;;;5034578;28;20033;-87
2023/06/15 00:56:38;;;;;;;493.65;469.65;;;11.90;68.10;;;;;;5035015;28;20033;-88
2023/06/15 00:59:04;;;;;;;458.63;435.58;;;11.90;68.70;;;;;;5032695;28;20532;-88
2023/06/15 01:01:30;;;;;;;509.27;484.30;;;12.00;68.90;;;;;;5036890;28;20029;-89
2023/06/15 01:03:57;;;;;;;521.88;496.13;;;11.90;69.20;;;;;;5031325;28;20039;-89
2023/06/15 01:06:24;;;;;;;524.28;498.13;;;12.00;68.50;;;;;;5035736;28;20534;-88
2023/06/15 01:08:52;;;;;;;572.53;543.38;;;12.20;68.00;;;;;;5036603;28;20581;-88
2023/06/15 01:11:18;;;;;;;569.78;541.13;;;12.10;68.10;;;;;;5036327;28;20042;-88
2023/06/15 01:13:45;;;;;;;624.53;592.40;;;12.20;68.20;;;;;;5037223;28;20052;-88
2023/06/15 01:16:24;;;;;;;587.60;556.58;;;12.20;68.30;;;;;;5032265;28;20025;-87
2023/06/15 01:18:56;;;;;;;604.42;573.13;;;12.10;67.70;;;;;;5032274;28;20058;-87
2023/06/15 01:21:26;;;;;;;570.00;541.40;;;12.20;67.90;;;;;;5034762;28;20033;-87
2023/06/15 01:24:07;;;;;;;571.20;543.42;;;12.10;68.20;;;;;;5032539;28;20078;-88
2023/06/15 01:26:34;;;;;;;496.52;472.10;;;12.00;68.80;;;;;;5035465;28;20021;-88
2023/06/15 01:29:00;;;;;;;483.85;460.27;;;12.00;68.40;;;;;;5036765;28;20025;-88
2023/06/15 01:31:27;;;;;;;432.02;413.17;;;12.00;68.50;;;;;;5029858;28;20443;-87
2023/06/15 01:33:53;;;;;;;487.63;464.80;;;12.00;68.70;;;;;;5034061;28;20429;-87
2023/06/15 01:36:19;;;;;;;486.75;464.20;;;12.00;68.40;;;;;;5033600;28;20037;-88
2023/06/15 01:38:47;;;;;;;471.30;450.60;;;12.00;68.60;;;;;;5032498;28;20037;-87
2023/06/15 01:41:15;;;;;;;478.85;457.23;;;12.00;68.40;;;;;;5034942;28;20045;-87
2023/06/15 01:43:41;;;;;;;432.08;413.65;;;12.00;68.70;;;;;;5032750;28;20052;-89
2023/06/15 01:46:07;;;;;;;493.15;470.48;;;12.00;69.30;;;;;;5033544;28;20087;-89
2023/06/15 01:48:33;;;;;;;440.23;421.08;;;12.00;68.90;;;;;;5035278;28;20021;-88
2023/06/15 01:51:00;;;;;;;463.45;442.67;;;11.90;69.30;;;;;;5032082;28;20029;-88
2023/06/15 01:53:26;;;;;;;378.02;362.73;;;12.00;69.10;;;;;;5038911;28;20039;-88
2023/06/15 01:55:52;;;;;;;476.23;455.60;;;11.90;69.30;;;;;;5032672;28;20053;-88
2023/06/15 01:58:18;;;;;;;439.05;420.67;;;11.70;69.90;;;;;;5034030;28;20033;-88
2023/06/15 02:00:44;;;;;;;421.40;403.75;;;11.70;70.00;;;;;;5032711;28;20181;-88
2023/06/15 02:03:11;;;;;;;396.58;380.13;;;11.60;70.70;;;;;;5028832;28;20799;-88
2023/06/15 02:05:39;;;;;;;428.73;410.90;;;11.60;71.00;;;;;;5037808;28;20164;-88
2023/06/15 02:08:09;;;;;;;411.67;394.88;;;11.60;70.60;;;;;;5036612;28;20032;-87
2023/06/15 02:10:35;;;;;;;395.33;378.90;;;11.50;71.00;;;;;;5035292;28;20025;-88
2023/06/15 02:13:01;;;;;;;383.20;367.60;;;11.50;71.40;;;;;;5033480;28;20029;-88
2023/06/15 02:15:27;;;;;;;330.63;317.02;;;11.50;71.50;;;;;;5031654;28;20025;-89
2023/06/15 02:18:02;;;;;;;324.90;312.02;;;11.40;71.50;;;;;;5030737;28;20561;-88
2023/06/15 02:20:29;;;;;;;323.42;310.60;;;11.40;71.90;;;;;;5033392;28;20051;-88
2023/06/15 02:22:57;;;;;;;322.40;309.50;;;11.30;72.00;;;;;;5050130;28;20385;-88
2023/06/15 02:25:29;;;;;;;311.05;298.90;;;11.40;72.10;;;;;;5033034;28;20047;-88
2023/06/15 02:27:56;;;;;;;307.27;295.20;;;11.30;72.10;;;;;;5032800;28;20040;-88
2023/06/15 02:30:24;;;;;;;281.33;270.35;;;11.30;72.40;;;;;;5035591;28;20467;-87
2023/06/15 02:32:52;;;;;;;274.10;263.45;;;11.30;72.70;;;;;;5033892;28;20032;-88
2023/06/15 02:35:18;;;;;;;272.10;261.15;;;11.20;72.40;;;;;;5031923;28;20101;-87
2023/06/15 02:37:44;;;;;;;226.25;217.77;;;11.20;72.90;;;;;;5041607;28;20032;-88
2023/06/15 02:40:10;;;;;;;280.95;270.08;;;11.20;73.00;;;;;;5034125;28;20033;-87
2023/06/15 02:42:37;;;;;;;256.20;246.35;;;11.30;72.50;;;;;;5034063;28;20099;-87
2023/06/15 02:45:06;;;;;;;235.75;226.55;;;11.20;72.60;;;;;;5032556;28;20473;-87
2023/06/15 02:47:33;;;;;;;269.05;258.58;;;11.20;73.10;;;;;;5032346;28;20438;-87
2023/06/15 02:49:59;;;;;;;276.90;266.58;;;11.30;72.70;;;;;;5039477;28;20462;-88
2023/06/15 02:52:31;;;;;;;262.27;252.23;;;11.20;73.00;;;;;;5033987;28;20112;-88
2023/06/15 02:55:00;;;;;;;249.50;239.98;;;11.30;73.10;;;;;;5012101;28;20083;-87
2023/06/15 02:57:26;;;;;;;273.33;262.95;;;11.20;73.50;;;;;;5038278;28;20040;-87
2023/06/15 02:59:53;;;;;;;251.63;241.95;;;11.20;74.10;;;;;;5020692;28;20405;-87
2023/06/15 03:02:20;;;;;;;260.63;251.02;;;11.10;74.00;;;;;;5040809;28;20092;-88
2023/06/15 03:04:48;;;;;;;255.80;246.25;;;11.20;73.60;;;;;;5039890;28;20416;-87
2023/06/15 03:07:16;;;;;;;258.55;248.90;;;11.20;73.70;;;;;;5033838;28;20108;-88
2023/06/15 03:09:47;;;;;;;232.70;224.15;;;11.30;73.20;;;;;;5043798;28;20350;-86
2023/06/15 03:12:12;;;;;;;211.60;203.75;;;11.20;73.60;;;;;;5038383;28;20455;-88
2023/06/15 03:14:38;;;;;;;209.30;201.55;;;11.20;73.30;;;;;;5037660;28;20111;-87
2023/06/15 03:17:08;;;;;;;210.30;202.32;;;11.20;74.10;;;;;;5037156;28;20064;-89
2023/06/15 03:19:33;;;;;;;235.48;226.65;;;11.30;73.20;;;;;;5033411;28;20041;-87
2023/06/15 03:22:00;;;;;;;210.35;202.45;;;11.10;73.80;;;;;;5035058;28;20050;-90
2023/06/15 03:24:25;;;;;;;179.10;172.05;;;11.10;74.30;;;;;;5033796;28;20056;-88
2023/06/15 03:26:51;;;;;;;216.10;208.02;;;11.00;74.80;;;;;;5019179;28;20121;-88
2023/06/15 03:29:17;;;;;;;230.65;222.07;;;11.00;74.80;;;;;;5036981;28;20037;-90
2023/06/15 03:31:42;;;;;;;200.10;192.32;;;11.00;75.20;;;;;;5037344;28;20423;-88
2023/06/15 03:34:09;;;;;;;204.77;196.75;;;11.00;75.10;;;;;;5038611;28;20114;-88
2023/06/15 03:36:35;;;;;;;126.80;120.68;;;11.10;74.90;;;;;;5032669;28;20033;-88
2023/06/15 03:39:02;;;;;;;106.18;101.82;;;11.00;75.50;;;;;;5035004;28;20041;-90
2023/06/15 03:41:27;;;;;;;141.82;136.27;;;11.00;75.50;;;;;;5035819;28;20029;-90
2023/06/15 03:43:53;;;;;;;128.73;122.38;;;11.10;75.10;;;;;;5041153;28;20024;-90
2023/06/15 03:46:19;;;;;;;141.20;135.60;;;10.90;75.80;;;;;;5035747;28;20021;-92
2023/06/15 03:48:45;;;;;;;120.53;115.78;;;11.10;76.00;;;;;;5044052;28;20026;-88
2023/06/15 03:51:11;;;;;;;111.35;106.93;;;11.10;75.50;;;;;;5033584;28;20572;-88
2023/06/15 03:53:41;;;;;;;1999.90;999.90;;;11.10;75.80;;;;;;5033844;28;20028;-89
2023/06/15 03:56:06;;;;;;;1999.90;999.90;;;11.10;75.20;;;;;;5038362;28;20108;-87
2023/06/15 03:58:32;;;;;;;1999.90;999.90;;;11.20;75.40;;;;;;5016857;28;20137;-87
2023/06/15 04:00:58;;;;;;;1999.90;999.90;;;11.20;75.10;;;;;;5043328;28;20039;-88
2023/06/15 04:03:26;;;;;;;1999.90;999.90;;;11.20;75.40;;;;;;5035691;28;20130;-88
2023/06/15 04:05:52;;;;;;;1999.90;999.90;;;11.20;75.50;;;;;;5031429;28;20112;-88
2023/06/15 04:08:18;;;;;;;1999.90;999.90;;;11.20;76.10;;;;;;5032975;28;20033;-88
2023/06/15 04:10:45;;;;;;;1999.90;999.90;;;11.30;75.00;;;;;;5031514;28;20079;-88
2023/06/15 04:13:11;;;;;;;1999.90;999.90;;;11.30;75.20;;;;;;5009331;28;20072;-86
2023/06/15 04:15:36;;;;;;;1999.90;999.90;;;11.30;75.30;;;;;;5027214;28;20453;-88
2023/06/15 04:18:03;;;;;;;1999.90;999.90;;;11.30;75.00;;;;;;5033998;28;20041;-87
2023/06/15 04:20:30;;;;;;;1999.90;999.90;;;11.40;75.70;;;;;;5034277;28;20049;-88
2023/06/15 04:22:59;;;;;;;1999.90;999.90;;;11.50;75.00;;;;;;5009102;28;20040;-87
2023/06/15 04:25:27;;;;;;;1999.90;999.90;;;11.50;75.60;;;;;;5030970;28;20025;-88
2023/06/15 04:27:53;;;;;;;1999.90;999.90;;;11.60;74.70;;;;;;5036668;28;20024;-87
2023/06/15 04:30:24;;;;;;;1999.90;999.90;;;11.80;73.70;;;;;;5031966;28;20754;-88
2023/06/15 04:32:57;;;;;;;1999.90;999.90;;;11.80;73.20;;;;;;5039772;28;20176;-87
2023/06/15 04:35:24;;;;;;;1999.90;999.90;;;11.90;73.50;;;;;;5038036;28;20554;-88
2023/06/15 04:37:53;;;;;;;1999.90;999.90;;;11.90;73.40;;;;;;5034620;28;20033;-88
2023/06/15 04:40:20;;;;;;;1999.90;999.90;;;12.00;72.50;;;;;;5037165;28;20091;-87
2023/06/15 04:42:45;;;;;;;1999.90;999.90;;;12.10;72.80;;;;;;5032040;28;20448;-87
2023/06/15 04:45:11;;;;;;;1999.90;999.90;;;12.20;72.50;;;;;;5032128;28;20037;-88
2023/06/15 04:47:37;;;;;;;1999.90;999.90;;;12.10;72.10;;;;;;5039928;28;20397;-86
2023/06/15 04:50:03;;;;;;;1999.90;999.90;;;12.20;72.50;;;;;;5031320;28;20022;-85
2023/06/15 04:52:29;;;;;;;1999.90;999.90;;;12.20;72.20;;;;;;5031634;28;20037;-87
2023/06/15 04:54:55;;;;;;;1999.90;999.90;;;12.30;71.70;;;;;;5014507;28;20029;-85
2023/06/15 04:57:21;;;;;;;1999.90;999.90;;;12.40;72.70;;;;;;5031349;28;20112;-85
2023/06/15 04:59:47;;;;;;;1999.90;999.90;;;12.30;72.30;;;;;;5037552;28;20033;-84
2023/06/15 05:02:12;;;;;;;1999.90;999.90;;;12.30;72.00;;;;;;5033001;28;20036;-84
2023/06/15 05:04:38;;;;;;;1999.90;999.90;;;12.40;71.80;;;;;;5029394;28;20037;-84
2023/06/15 05:07:04;;;;;;;1999.90;999.90;;;12.50;71.90;;;;;;5034245;28;20476;-85
2023/06/15 05:09:30;;;;;;;1999.90;999.90;;;12.50;71.40;;;;;;5031470;28;20021;-84
2023/06/15 05:11:56;;;;;;;1999.90;999.90;;;12.70;70.60;;;;;;5030772;28;20381;-85
2023/06/15 05:14:22;;;;;;;1999.90;999.90;;;12.80;70.90;;;;;;5034924;28;20037;-84
2023/06/15 05:16:48;;;;;;;1999.90;999.90;;;12.80;70.40;;;;;;5031257;28;20025;-84
2023/06/15 05:19:14;;;;;;;1999.90;999.90;;;12.90;70.50;;;;;;5033977;28;20148;-85
2023/06/15 05:21:40;;;;;;;1999.90;999.90;;;13.00;69.70;;;;;;5012926;28;20054;-86
2023/06/15 05:24:06;;;;;;;1999.90;999.90;;;12.90;69.90;;;;;;5034574;28;20483;-86
2023/06/15 05:26:32;;;;;;;1999.90;999.90;;;13.10;69.70;;;;;;5033788;28;20029;-86
2023/06/15 05:28:57;;;;;;;1999.90;999.90;;;13.20;69.40;;;;;;5027702;28;20393;-87
2023/06/15 05:31:23;;;;;;;1999.90;999.90;;;13.20;68.90;;;;;;5031426;28;20037;-88
2023/06/15 05:33:48;;;;;;;1999.90;999.90;;;13.30;68.90;;;;;;5036962;28;20087;-85
2023/06/15 05:36:14;;;;;;;1999.90;999.90;;;13.30;68.10;;;;;;5035512;28;20484;-83
2023/06/15 05:38:40;;;;;;;1999.90;999.90;;;13.40;68.70;;;;;;5014707;28;20726;-85
2023/06/15 05:41:06;;;;;;;1999.90;999.90;;;13.40;68.30;;;;;;5029180;28;20545;-82
2023/06/15 05:43:31;;;;;;;1999.90;999.90;;;13.40;68.60;;;;;;5013663;28;20109;-81
2023/06/15 05:45:57;;;;;;;1999.90;999.90;;;13.40;68.60;;;;;;5030201;28;20159;-81
2023/06/15 05:48:22;;;;;;;1999.90;999.90;;;13.50;68.60;;;;;;5044530;28;20116;-81
2023/06/15 05:50:48;;;;;;;1999.90;999.90;;;13.60;69.40;;;;;;5035449;28;20099;-82
2023/06/15 05:53:14;;;;;;;1999.90;999.90;;;13.60;68.60;;;;;;5032295;28;20045;-81
2023/06/15 05:55:39;;;;;;;1999.90;999.90;;;13.70;68.20;;;;;;5014000;28;20029;-81
2023/06/15 05:58:05;;;;;;;1999.90;999.90;;;13.80;68.00;;;;;;5032938;28;20034;-80
2023/06/15 06:00:31;;;;;;;1999.90;999.90;;;13.80;68.80;;;;;;5028225;28;20029;-87
2023/06/15 06:02:58;;;;;;;1999.90;999.90;;;13.90;67.80;;;;;;5031886;28;20039;-88
2023/06/15 06:05:25;;;;;;;1999.90;999.90;;;13.90;68.40;;;;;;5036561;28;20029;-90
2023/06/15 06:07:51;;;;;;;1999.90;999.90;;;14.00;68.10;;;;;;5033862;28;20396;-87
2023/06/15 06:10:18;;;;;;;1999.90;999.90;;;14.10;67.30;;;;;;5037228;28;20040;-90
2023/06/15 06:12:43;;;;;;;1999.90;999.90;;;14.20;67.60;;;;;;5029856;28;20037;-89
2023/06/15 06:15:09;;;;;;;1999.90;999.90;;;14.30;67.20;;;;;;5037677;28;20064;-89
2023/06/15 06:17:35;;;;;;;1999.90;999.90;;;14.50;66.20;;;;;;5034399;28;20477;-91
2023/06/15 06:20:01;;;;;;;1999.90;999.90;;;14.50;66.80;;;;;;5033144;28;20036;-88
2023/06/15 06:22:26;;;;;;;1999.90;999.90;;;14.60;66.20;;;;;;5033467;28;20040;-89
2023/06/15 06:24:52;;;;;;;1999.90;999.90;;;14.70;65.60;;;;;;5038688;28;20053;-89
2023/06/15 06:27:18;;;;;;;1999.90;999.90;;;14.90;66.60;;;;;;5015367;28;20065;-88
2023/06/15 06:29:44;;;;;;;1999.90;999.90;;;15.00;64.90;;;;;;5038989;28;20533;-90
2023/06/15 06:32:10;;;;;;;1999.90;999.90;;;15.20;66.20;;;;;;5032734;28;20092;-89
2023/06/15 06:34:36;;;;;;;1999.90;999.90;;;15.40;65.60;;;;;;5031664;28;20556;-89
2023/06/15 06:37:03;;;;;;;1999.90;999.90;;;15.40;63.50;;;;;;5034001;28;20037;-90
2023/06/15 06:39:29;;;;;;;1999.90;999.90;;;15.60;64.30;;;;;;5032981;28;20038;-89
2023/06/15 06:41:55;;;;;;;1999.90;999.90;;;15.70;63.90;;;;;;5038908;28;20025;-88
2023/06/15 06:44:21;;;;;;;1999.90;999.90;;;15.70;62.90;;;;;;5036051;28;20112;-89
2023/06/15 06:46:47;;;;;;;1999.90;999.90;;;15.60;63.30;;;;;;5031441;28;20556;-90
2023/06/15 06:49:12;;;;;;;1999.90;999.90;;;15.80;62.70;;;;;;5039863;28;20037;-89
2023/06/15 06:51:38;;;;;;;1999.90;999.90;;;15.80;62.80;;;;;;5034774;28;20477;-90
2023/06/15 06:54:04;;;;;;;1999.90;999.90;;;15.90;62.90;;;;;;5033926;28;20068;-89
2023/06/15 06:56:30;;;;;;;1999.90;999.90;;;16.20;63.40;;;;;;5035802;28;20067;-89
2023/06/15 06:58:55;;;;;;;1999.90;999.90;;;16.30;62.90;;;;;;5033698;28;20141;-89
2023/06/15 07:01:21;;;;;;;1999.90;999.90;;;16.30;62.40;;;;;;5031891;28;20095;-90
2023/06/15 07:03:47;;;;;;;1999.90;999.90;;;16.50;63.10;;;;;;5015501;28;20125;-89
2023/06/15 07:06:12;;;;;;;1999.90;999.90;;;16.50;61.20;;;;;;5032973;28;20123;-89
2023/06/15 07:08:38;;;;;;;1999.90;999.90;;;16.60;61.90;;;;;;5022867;28;20029;-89
2023/06/15 07:11:03;;;;;;;1999.90;999.90;;;16.70;61.90;;;;;;5033778;28;20034;-88
2023/06/15 07:13:29;;;;;;;1999.90;999.90;;;16.90;61.20;;;;;;5038083;28;20029;-89
2023/06/15 07:15:57;;;;;;;1999.90;999.90;;;17.20;62.00;;;;;;5030777;28;20044;-90
2023/06/15 07:18:23;;;;;;;1999.90;999.90;;;17.30;61.20;;;;;;5015175;28;20037;-90
2023/06/15 07:20:53;;;;;;;1999.90;999.90;;;17.40;60.00;;;;;;5040012;28;20045;-88
2023/06/15 07:23:23;;;;;;;1999.90;999.90;;;17.50;60.70;;;;;;5030131;28;20084;-90
2023/06/15 07:25:52;;;;;;;1999.90;999.90;;;17.60;59.30;;;;;;5031737;28;20467;-89
2023/06/15 07:28:19;;;;;;;1999.90;999.90;;;17.70;56.40;;;;;;5038131;28;20041;-89
2023/06/15 07:30:50;;;;;;;1999.90;999.90;;;17.50;58.50;;;;;;5034762;28;20097;-90
2023/06/15 07:33:17;;;;;;;1999.90;999.90;;;17.60;59.00;;;;;;5034750;28;20033;-90
2023/06/15 07:35:43;;;;;;;1999.90;999.90;;;17.90;57.50;;;;;;5034167;28;20112;-91
2023/06/15 07:38:09;;;;;;;1999.90;999.90;;;18.00;56.40;;;;;;5032311;28;20405;-90
2023/06/15 07:40:34;;;;;;;1999.90;999.90;;;18.20;56.90;;;;;;5039225;28;20030;-90
2023/06/15 07:43:00;;;;;;;1999.90;999.90;;;18.40;57.10;;;;;;5035783;28;20452;-87
2023/06/15 07:45:26;;;;;;;1999.90;999.90;;;18.70;56.20;;;;;;5034892;28;20020;-90
2023/06/15 07:47:52;;;;;;;1999.90;999.90;;;18.60;54.60;;;;;;5037425;28;20049;-89
2023/06/15 07:50:18;;;;;;;1999.90;999.90;;;18.80;53.90;;;;;;5014443;28;20037;-90
2023/06/15 07:52:43;;;;;;;1999.90;999.90;;;18.80;54.70;;;;;;5039738;28;20045;-92
2023/06/15 07:55:09;;;;;;;1999.90;999.90;;;19.00;54.40;;;;;;5038002;28;20048;-91
2023/06/15 07:57:35;;;;;;;1999.90;999.90;;;18.90;53.30;;;;;;5014874;28;20033;-91
2023/06/15 08:00:05;;;;;;;1999.90;999.90;;;18.90;52.60;;;;;;5044924;28;20029;-92
2023/06/15 08:02:31;;;;;;;1999.90;999.90;;;19.10;55.50;;;;;;5033145;28;20022;-89
2023/06/15 08:04:56;;;;;;;1999.90;999.90;;;19.10;52.70;;;;;;5037324;28;20396;-89
2023/06/15 08:07:22;;;;;;;1999.90;999.90;;;19.40;52.90;;;;;;5017010;28;20029;-89
2023/06/15 08:09:48;;;;;;;1999.90;999.90;;;19.50;53.10;;;;;;5037099;28;20033;-90
2023/06/15 08:12:13;;;;;;;1999.90;999.90;;;19.60;49.50;;;;;;5037916;28;20037;-90
2023/06/15 08:14:39;;;;;;;1999.90;999.90;;;19.70;50.30;;;;;;5017351;28;20053;-90
2023/06/15 08:17:05;;;;;;;1999.90;999.90;;;19.50;49.50;;;;;;5033233;28;20389;-90
2023/06/15 08:19:31;;;;;;;1999.90;999.90;;;19.60;51.50;;;;;;5038823;28;20040;-91
2023/06/15 08:21:56;;;;;;;1999.90;999.90;;;20.00;49.70;;;;;;5035447;28;20407;-91
2023/06/15 08:24:22;;;;;;;1999.90;999.90;;;20.00;49.60;;;;;;5031438;28;20041;-88
2023/06/15 08:26:51;;;;;;;1999.90;999.90;;;20.10;47.70;;;;;;5036586;28;20039;-88
2023/06/15 08:29:18;;;;;;;1999.90;999.90;;;20.10;49.90;;;;;;5033962;28;20036;-89
2023/06/15 08:31:43;;;;;;;1999.90;999.90;;;20.30;47.00;;;;;;5039743;28;20030;-88
2023/06/15 08:34:09;;;;;;;1999.90;999.90;;;20.30;48.60;;;;;;5022132;28;20041;-88
2023/06/15 08:36:36;;;;;;;1999.90;999.90;;;20.20;46.70;;;;;;5031733;28;20564;-87
2023/06/15 08:39:03;;;;;;;1999.90;999.90;;;20.50;46.20;;;;;;5055123;28;20048;-88
2023/06/15 08:41:30;;;;;;;1999.90;999.90;;;20.80;46.30;;;;;;5035426;28;20033;-87
2023/06/15 08:43:56;;;;;;;1999.90;999.90;;;21.00;45.40;;;;;;5036609;28;20029;-88
2023/06/15 08:46:25;;;;;;;1999.90;999.90;;;21.00;47.30;;;;;;5038776;28;20021;-87
2023/06/15 08:48:52;;;;;;;1999.90;999.90;;;21.10;47.80;;;;;;5035581;28;20029;-89
2023/06/15 08:51:19;;;;;;;1999.90;999.90;;;21.30;43.90;;;;;;5038870;28;20029;-88
2023/06/15 08:53:47;;;;;;;1999.90;999.90;;;21.50;43.60;;;;;;5032478;28;20036;-87
2023/06/15 08:56:13;;;;;;;1999.90;999.90;;;21.20;42.30;;;;;;5035876;28;20429;-88
2023/06/15 08:58:51;;;;;;;1999.90;999.90;;;21.40;40.30;;;;;;5038807;28;20396;-88
2023/06/15 09:01:22;;;;;;;1999.90;999.90;;;21.60;42.70;;;;;;5032933;28;20065;-88
2023/06/15 09:03:55;;;;;;;1999.90;999.90;;;21.90;42.50;;;;;;5016455;28;20025;-88
2023/06/15 09:06:22;;;;;;;1999.90;999.90;;;22.00;41.70;;;;;;5036886;28;20025;-87
2023/06/15 09:08:48;;;;;;;1999.90;999.90;;;22.50;39.80;;;;;;5029862;28;20025;-87
2023/06/15 09:11:15;;;;;;;1999.90;999.90;;;22.50;40.80;;;;;;5036756;28;20042;-87
2023/06/15 09:13:41;;;;;;;1999.90;999.90;;;22.70;39.20;;;;;;5033818;28;20041;-88
2023/06/15 09:16:08;;;;;;;1999.90;999.90;;;22.40;40.70;;;;;;5038725;28;20037;-88
2023/06/15 09:18:47;;;;;;;1999.90;999.90;;;22.60;41.20;;;;;;5031885;28;20037;-88
2023/06/15 09:21:14;;;;;;;1999.90;999.90;;;22.10;38.90;;;;;;5032439;28;20072;-87
2023/06/15 09:23:44;;;;;;;1999.90;999.90;;;22.40;41.40;;;;;;5037581;28;20128;-87
2023/06/15 09:26:23;;;;;;;1999.90;999.90;;;23.10;39.70;;;;;;5036643;28;20104;-89
2023/06/15 09:28:49;;;;;;;1999.90;999.90;;;23.00;37.40;;;;;;5037896;28;20017;-88
2023/06/15 09:31:34;;;;;;;1999.90;999.90;;;23.30;36.50;;;;;;5039883;28;20030;-89
2023/06/15 09:34:05;;;;;;;1999.90;999.90;;;23.20;35.20;;;;;;5031570;28;20025;-88
2023/06/15 09:36:41;;;;;;;1999.90;999.90;;;24.00;36.70;;;;;;5030584;28;20044;-88
2023/06/15 09:39:11;;;;;;;1999.90;999.90;;;23.00;33.40;;;;;;5030485;28;20512;-88
2023/06/15 09:42:00;;;;;;;1999.90;999.90;;;22.20;35.60;;;;;;5033308;28;20033;-87
2023/06/15 09:44:26;;;;;;;1999.90;999.90;;;22.00;38.30;;;;;;5034672;28;20029;-88
2023/06/15 09:47:02;;;;;;;1999.90;999.90;;;23.40;34.90;;;;;;5033956;28;20030;-88
2023/06/15 09:49:28;;;;;;;1999.90;999.90;;;23.70;33.80;;;;;;5023301;28;20032;-88
2023/06/15 09:51:55;;;;;;;1999.90;999.90;;;24.20;33.20;;;;;;5034178;28;20033;-88
2023/06/15 09:54:28;;;;;;;1999.90;999.90;;;24.80;29.90;;;;;;5035071;28;20093;-89
2023/06/15 09:56:55;;;;;;;1999.90;999.90;;;24.60;29.30;;;;;;5033641;28;20083;-89
2023/06/15 09:59:21;;;;;;;1999.90;999.90;;;24.70;30.80;;;;;;5037554;28;20033;-87
2023/06/15 10:01:49;;;;;;;1999.90;999.90;;;24.60;32.00;;;;;;5031995;28;20674;-87
2023/06/15 10:04:17;;;;;;;1999.90;999.90;;;24.00;30.90;;;;;;5036181;28;20046;-86
2023/06/15 10:06:47;;;;;;;1999.90;999.90;;;24.30;30.80;;;;;;5019307;28;20029;-87
2023/06/15 10:09:16;;;;;;;1999.90;999.90;;;24.00;30.00;;;;;;5046481;28;20054;-88
2023/06/15 10:11:45;;;;;;;1999.90;999.90;;;23.20;31.80;;;;;;5039242;28;20052;-88
2023/06/15 10:14:29;;;;;;;1999.90;999.90;;;22.80;33.50;;;;;;5051080;28;20037;-86
2023/06/15 10:17:02;;;;;;;1999.90;999.90;;;22.10;36.10;;;;;;5037038;28;20029;-87
2023/06/15 10:19:31;;;;;;;1999.90;999.90;;;23.00;34.40;;;;;;5033199;28;20033;-87
2023/06/15 10:21:57;;;;;;;1999.90;999.90;;;23.60;36.20;;;;;;5040435;28;20050;-88
2023/06/15 10:24:25;;;;;;;1999.90;999.90;;;24.40;31.80;;;;;;5039657;28;20037;-86
2023/06/15 10:26:50;;;;;;;1999.90;999.90;;;24.90;29.90;;;;;;5045752;28;20057;-89
2023/06/15 10:29:23;;;;;;;1999.90;999.90;;;24.40;27.30;;;;;;5043909;28;20029;-87
2023/06/15 10:31:59;;;;;;;1999.90;999.90;;;24.40;28.50;;;;;;5042231;28;20053;-87
2023/06/15 10:34:48;;;;;;;1999.90;999.90;;;24.90;29.20;;;;;;5043824;28;20087;-87
2023/06/15 10:37:36;;;;;;;1999.90;999.90;;;25.20;32.20;;;;;;5034097;28;20075;-87
2023/06/15 10:40:38;;;;;;;1999.90;999.90;;;25.40;29.10;;;;;;5044864;28;20028;-87
2023/06/15 10:43:05;;;;;;;1999.90;999.90;;;25.60;26.70;;;;;;5022383;28;20049;-88
2023/06/15 10:45:33;;;;;;;1999.90;999.90;;;25.80;30.20;;;;;;5032827;28;20032;-87
2023/06/15 10:48:03;;;;;;;1999.90;999.90;;;25.50;29.50;;;;;;5032852;28;20029;-90
2023/06/15 10:50:39;;;;;;;;;;;25.50;27.80;;;;;;5034113;28;20103;-88
2023/06/15 10:53:05;;;;;;;1999.90;999.90;;;25.70;28.40;;;;;;5067660;28;19975;-88
2023/06/15 10:55:31;;;;;;;1999.90;999.90;;;25.70;24.40;;;;;;5037504;28;20033;-88
2023/06/15 10:58:19;;;;;;;1999.90;999.90;;;26.20;25.90;;;;;;5029746;28;20037;-88
2023/06/15 11:00:50;;;;;;;1999.90;999.90;;;26.60;26.10;;;;;;5030055;28;20052;-89
2023/06/15 11:03:26;;;;;;;1999.90;999.90;;;27.00;24.80;;;;;;5029441;28;20030;-89
2023/06/15 11:06:02;;;;;;;1999.90;999.90;;;26.90;22.90;;;;;;5031826;28;20022;-88
2023/06/15 11:08:40;;;;;;;1999.90;999.90;;;27.80;23.40;;;;;;5038733;28;20135;-89
2023/06/15 11:11:10;;;;;;;1999.90;999.90;;;28.00;22.20;;;;;;5035999;28;20029;-90
2023/06/15 11:14:00;;;;;;;1999.90;999.90;;;29.20;19.90;;;;;;5026244;28;20029;-88
2023/06/15 11:16:29;;;;;;;1999.90;999.90;;;28.70;19.50;;;;;;5036955;28;20025;-90
2023/06/15 11:18:59;;;;;;;1999.90;999.90;;;28.60;22.40;;;;;;5041196;28;20057;-89
2023/06/15 11:21:29;;;;;;;1999.90;999.90;;;29.30;19.80;;;;;;5040020;28;20114;-89
2023/06/15 11:23:56;;;;;;;1999.90;999.90;;;30.40;19.00;;;;;;5036359;28;20524;-90
2023/06/15 11:26:22;;;;;;;1999.90;999.90;;;30.50;23.20;;;;;;5041765;28;20060;-89
2023/06/15 11:28:48;;;;;;;1999.90;999.90;;;29.90;20.50;;;;;;5019444;28;20061;-89
2023/06/15 11:31:16;;;;;;;1999.90;999.90;;;31.00;19.70;;;;;;5039704;28;20044;-90
2023/06/15 11:33:42;;;;;;;1999.90;999.90;;;30.20;19.70;;;;;;5021604;28;20489;-90
2023/06/15 11:36:11;;;;;;;1999.90;999.90;;;30.30;20.80;;;;;;5036481;28;20057;-89
2023/06/15 11:38:37;;;;;;;1999.90;999.90;;;30.50;20.20;;;;;;5039800;28;20040;-88
2023/06/15 11:41:08;;;;;;;1999.90;999.90;;;30.80;17.70;;;;;;5038658;28;20037;-91
2023/06/15 11:43:51;;;;;;;1999.90;999.90;;;30.40;17.60;;;;;;5028802;28;20516;-88
2023/06/15 11:46:20;;;;;;;1999.90;999.90;;;30.60;18.10;;;;;;5036822;28;20037;-89
2023/06/15 11:48:47;;;;;;;1999.90;999.90;;;31.10;18.00;;;;;;5035649;28;20021;-89
2023/06/15 11:51:15;;;;;;;1999.90;999.90;;;31.70;17.10;;;;;;5037008;28;20038;-89
2023/06/15 11:53:42;;;;;;;1999.90;999.90;;;30.10;18.20;;;;;;5020378;28;20025;-88
2023/06/15 11:56:15;;;;;;;1999.90;999.90;;;30.20;17.90;;;;;;5028794;28;20091;-90
2023/06/15 11:58:42;;;;;;;1999.90;999.90;;;28.90;20.50;;;;;;5032992;28;20083;-88
2023/06/15 12:01:11;;;;;;;1999.90;999.90;;;30.10;18.50;;;;;;5033574;28;20033;-88
2023/06/15 12:03:40;;;;;;;1999.90;999.90;;;28.20;20.00;;;;;;5034617;28;20033;-89